Neenah, Wisconsin
Current Conditions -  °F | °C
As of 5:45 PM on Friday 24 Oct 2014 (Local Time) from KATW Reporting Station
Broken Clouds Broken Clouds  
Wind Chill: 11°   Ceiling: 6500
Heat Index: 11°   Visibility: 10mi
Dew Point:   Wind: 5mph
Humidity: 88%   Direction: NA
Pressure: 29.91"   Gusts: NA
Location:  44.19°N, 88.46°W
Report Text: KATW 242245Z VRB04KT 10SM BKN065 11/09 A2991
Loading
Personal Weather Stations






























Interactive Weather Map
Tropical Storm Tracking
New forecast layout! Learn more

10-Day Weather Forecast

Advertisements
Track Severe Weather on mobile